sensor_id;sensor_type;location;lat;lon;timestamp;P1;durP1;ratioP1;P2;durP2;ratioP2
25419;SDS011;13354;48.174;11.566;2023-02-15T00:01:16;17.20;;;11.82;;
25419;SDS011;13354;48.174;11.566;2023-02-15T00:03:41;19.33;;;11.20;;
25419;SDS011;13354;48.174;11.566;2023-02-15T00:06:07;14.80;;;11.60;;
25419;SDS011;13354;48.174;11.566;2023-02-15T00:08:32;15.50;;;12.65;;
25419;SDS011;13354;48.174;11.566;2023-02-15T00:11:04;17.30;;;12.00;;
25419;SDS011;13354;48.174;11.566;2023-02-15T00:13:34;22.15;;;12.38;;
25419;SDS011;13354;48.174;11.566;2023-02-15T00:16:05;26.17;;;12.93;;
25419;SDS011;13354;48.174;11.566;2023-02-15T00:18:32;18.50;;;12.85;;
25419;SDS011;13354;48.174;11.566;2023-02-15T00:20:58;27.08;;;12.05;;
25419;SDS011;13354;48.174;11.566;2023-02-15T00:23:28;17.23;;;11.57;;
25419;SDS011;13354;48.174;11.566;2023-02-15T00:26:02;17.13;;;11.90;;
25419;SDS011;13354;48.174;11.566;2023-02-15T00:28:29;20.15;;;12.65;;
25419;SDS011;13354;48.174;11.566;2023-02-15T00:30:56;21.17;;;11.63;;
25419;SDS011;13354;48.174;11.566;2023-02-15T00:33:27;14.13;;;11.38;;
25419;SDS011;13354;48.174;11.566;2023-02-15T00:35:56;15.35;;;10.52;;
25419;SDS011;13354;48.174;11.566;2023-02-15T00:38:22;13.05;;;10.85;;
25419;SDS011;13354;48.174;11.566;2023-02-15T00:40:51;16.35;;;10.45;;
25419;SDS011;13354;48.174;11.566;2023-02-15T00:43:20;13.13;;;10.65;;
25419;SDS011;13354;48.174;11.566;2023-02-15T00:45:46;17.33;;;11.00;;
25419;SDS011;13354;48.174;11.566;2023-02-15T00:48:11;27.13;;;11.95;;
25419;SDS011;13354;48.174;11.566;2023-02-15T00:50:37;13.63;;;10.70;;
25419;SDS011;13354;48.174;11.566;2023-02-15T00:53:02;18.80;;;11.88;;
25419;SDS011;13354;48.174;11.566;2023-02-15T00:55:27;20.95;;;10.80;;
25419;SDS011;13354;48.174;11.566;2023-02-15T00:57:53;16.25;;;10.50;;
25419;SDS011;13354;48.174;11.566;2023-02-15T01:00:18;17.45;;;11.02;;
25419;SDS011;13354;48.174;11.566;2023-02-15T01:02:43;18.27;;;11.07;;
25419;SDS011;13354;48.174;11.566;2023-02-15T01:05:08;19.05;;;11.10;;
25419;SDS011;13354;48.174;11.566;2023-02-15T01:07:34;15.68;;;11.32;;
25419;SDS011;13354;48.174;11.566;2023-02-15T01:09:59;16.27;;;10.48;;
25419;SDS011;13354;48.174;11.566;2023-02-15T01:12:24;16.05;;;10.18;;
25419;SDS011;13354;48.174;11.566;2023-02-15T01:14:50;13.40;;;9.75;;
25419;SDS011;13354;48.174;11.566;2023-02-15T01:17:15;16.55;;;9.25;;
25419;SDS011;13354;48.174;11.566;2023-02-15T01:19:40;13.77;;;10.32;;
25419;SDS011;13354;48.174;11.566;2023-02-15T01:22:06;14.65;;;10.82;;
25419;SDS011;13354;48.174;11.566;2023-02-15T01:24:31;13.60;;;10.23;;
25419;SDS011;13354;48.174;11.566;2023-02-15T01:26:56;12.85;;;9.48;;
25419;SDS011;13354;48.174;11.566;2023-02-15T01:29:22;15.35;;;10.23;;
25419;SDS011;13354;48.174;11.566;2023-02-15T01:31:47;11.15;;;9.38;;
25419;SDS011;13354;48.174;11.566;2023-02-15T01:34:12;12.65;;;9.93;;
25419;SDS011;13354;48.174;11.566;2023-02-15T01:36:38;12.88;;;9.57;;
25419;SDS011;13354;48.174;11.566;2023-02-15T01:39:03;14.10;;;9.75;;
25419;SDS011;13354;48.174;11.566;2023-02-15T01:41:28;12.70;;;9.63;;
25419;SDS011;13354;48.174;11.566;2023-02-15T01:46:40;10.55;;;8.73;;
25419;SDS011;13354;48.174;11.566;2023-02-15T01:49:15;14.90;;;9.88;;
25419;SDS011;13354;48.174;11.566;2023-02-15T01:51:44;13.40;;;9.90;;
25419;SDS011;13354;48.174;11.566;2023-02-15T01:54:17;10.45;;;8.93;;
25419;SDS011;13354;48.174;11.566;2023-02-15T01:56:46;11.70;;;9.30;;
25419;SDS011;13354;48.174;11.566;2023-02-15T01:59:14;11.10;;;9.45;;
25419;SDS011;13354;48.174;11.566;2023-02-15T02:01:44;12.07;;;9.90;;
25419;SDS011;13354;48.174;11.566;2023-02-15T02:04:15;12.68;;;9.32;;
25419;SDS011;13354;48.174;11.566;2023-02-15T02:06:47;15.07;;;9.95;;
25419;SDS011;13354;48.174;11.566;2023-02-15T02:09:14;13.55;;;10.10;;
25419;SDS011;13354;48.174;11.566;2023-02-15T02:11:40;12.40;;;10.10;;
25419;SDS011;13354;48.174;11.566;2023-02-15T02:14:06;18.80;;;10.70;;
25419;SDS011;13354;48.174;11.566;2023-02-15T02:16:57;12.88;;;10.13;;
25419;SDS011;13354;48.174;11.566;2023-02-15T02:27:33;13.05;;;10.50;;
25419;SDS011;13354;48.174;11.566;2023-02-15T02:33:40;19.52;;;10.52;;
25419;SDS011;13354;48.174;11.566;2023-02-15T02:41:30;19.70;;;11.55;;
25419;SDS011;13354;48.174;11.566;2023-02-15T02:44:10;14.55;;;11.43;;
25419;SDS011;13354;48.174;11.566;2023-02-15T02:46:55;33.88;;;10.90;;
25419;SDS011;13354;48.174;11.566;2023-02-15T02:49:30;17.63;;;10.93;;
25419;SDS011;13354;48.174;11.566;2023-02-15T02:52:00;14.27;;;10.88;;
25419;SDS011;13354;48.174;11.566;2023-02-15T02:54:26;17.23;;;11.00;;
25419;SDS011;13354;48.174;11.566;2023-02-15T02:56:53;20.60;;;11.55;;
25419;SDS011;13354;48.174;11.566;2023-02-15T02:59:28;17.00;;;11.35;;
25419;SDS011;13354;48.174;11.566;2023-02-15T03:02:03;18.77;;;12.32;;
25419;SDS011;13354;48.174;11.566;2023-02-15T03:04:35;18.08;;;11.40;;
25419;SDS011;13354;48.174;11.566;2023-02-15T03:07:04;15.05;;;12.02;;
25419;SDS011;13354;48.174;11.566;2023-02-15T03:09:42;18.50;;;11.00;;
25419;SDS011;13354;48.174;11.566;2023-02-15T03:14:38;15.20;;;10.82;;
25419;SDS011;13354;48.174;11.566;2023-02-15T03:17:05;14.50;;;11.55;;
25419;SDS011;13354;48.174;11.566;2023-02-15T03:19:33;17.52;;;11.80;;
25419;SDS011;13354;48.174;11.566;2023-02-15T03:22:02;20.35;;;12.57;;
25419;SDS011;13354;48.174;11.566;2023-02-15T03:25:35;11.63;;;8.85;;
25419;SDS011;13354;48.174;11.566;2023-02-15T03:27:39;15.05;;;11.20;;
25419;SDS011;13354;48.174;11.566;2023-02-15T03:30:07;14.95;;;11.70;;
25419;SDS011;13354;48.174;11.566;2023-02-15T03:32:35;14.10;;;11.27;;
25419;SDS011;13354;48.174;11.566;2023-02-15T03:35:04;13.90;;;11.48;;
25419;SDS011;13354;48.174;11.566;2023-02-15T03:37:39;17.35;;;12.35;;
25419;SDS011;13354;48.174;11.566;2023-02-15T03:45:51;21.02;;;11.82;;
25419;SDS011;13354;48.174;11.566;2023-02-15T03:48:27;15.30;;;11.75;;
25419;SDS011;13354;48.174;11.566;2023-02-15T03:50:58;16.58;;;12.75;;
25419;SDS011;13354;48.174;11.566;2023-02-15T03:53:46;18.15;;;12.60;;
25419;SDS011;13354;48.174;11.566;2023-02-15T03:56:13;26.17;;;12.32;;
25419;SDS011;13354;48.174;11.566;2023-02-15T03:58:39;21.83;;;12.82;;
25419;SDS011;13354;48.174;11.566;2023-02-15T04:01:25;12.65;;;9.93;;
25419;SDS011;13354;48.174;11.566;2023-02-15T04:04:20;17.02;;;12.88;;
25419;SDS011;13354;48.174;11.566;2023-02-15T04:06:47;20.42;;;12.63;;
25419;SDS011;13354;48.174;11.566;2023-02-15T04:09:13;18.17;;;12.65;;
25419;SDS011;13354;48.174;11.566;2023-02-15T04:11:57;15.10;;;11.73;;
25419;SDS011;13354;48.174;11.566;2023-02-15T04:14:23;19.02;;;13.20;;
25419;SDS011;13354;48.174;11.566;2023-02-15T04:17:07;13.27;;;9.57;;
25419;SDS011;13354;48.174;11.566;2023-02-15T04:19:33;14.82;;;11.80;;
25419;SDS011;13354;48.174;11.566;2023-02-15T04:22:17;18.65;;;12.13;;
25419;SDS011;13354;48.174;11.566;2023-02-15T04:25:01;13.27;;;9.70;;
25419;SDS011;13354;48.174;11.566;2023-02-15T04:27:36;15.00;;;12.00;;
25419;SDS011;13354;48.174;11.566;2023-02-15T04:30:02;17.95;;;13.07;;
25419;SDS011;13354;48.174;11.566;2023-02-15T04:32:28;51.47;;;13.00;;
25419;SDS011;13354;48.174;11.566;2023-02-15T04:34:54;18.10;;;12.38;;
25419;SDS011;13354;48.174;11.566;2023-02-15T04:37:19;18.45;;;12.60;;
25419;SDS011;13354;48.174;11.566;2023-02-15T04:39:44;36.47;;;13.65;;
25419;SDS011;13354;48.174;11.566;2023-02-15T04:42:09;20.30;;;12.90;;
25419;SDS011;13354;48.174;11.566;2023-02-15T04:44:35;22.35;;;12.13;;
25419;SDS011;13354;48.174;11.566;2023-02-15T04:47:00;16.00;;;11.90;;
25419;SDS011;13354;48.174;11.566;2023-02-15T04:49:25;18.65;;;12.77;;
25419;SDS011;13354;48.174;11.566;2023-02-15T04:51:51;17.27;;;12.80;;
25419;SDS011;13354;48.174;11.566;2023-02-15T04:54:16;18.23;;;13.30;;
25419;SDS011;13354;48.174;11.566;2023-02-15T04:56:42;16.33;;;12.52;;
25419;SDS011;13354;48.174;11.566;2023-02-15T04:59:09;24.73;;;12.82;;
25419;SDS011;13354;48.174;11.566;2023-02-15T05:01:35;15.07;;;11.98;;
25419;SDS011;13354;48.174;11.566;2023-02-15T05:04:00;17.67;;;12.75;;
25419;SDS011;13354;48.174;11.566;2023-02-15T05:06:26;17.98;;;12.85;;
25419;SDS011;13354;48.174;11.566;2023-02-15T05:08:51;18.92;;;13.10;;
25419;SDS011;13354;48.174;11.566;2023-02-15T05:11:17;17.08;;;12.93;;
25419;SDS011;13354;48.174;11.566;2023-02-15T05:13:42;18.55;;;13.18;;
25419;SDS011;13354;48.174;11.566;2023-02-15T05:16:07;21.33;;;13.32;;
25419;SDS011;13354;48.174;11.566;2023-02-15T05:18:33;16.02;;;12.63;;
25419;SDS011;13354;48.174;11.566;2023-02-15T05:20:58;22.67;;;13.73;;
25419;SDS011;13354;48.174;11.566;2023-02-15T05:23:23;17.88;;;13.50;;
25419;SDS011;13354;48.174;11.566;2023-02-15T05:25:49;18.65;;;13.45;;
